sensor_id;sensor_type;location;lat;lon;timestamp;P1;durP1;ratioP1;P2;durP2;ratioP2
71715;SDS011;59568;52.128;5.434;2023-08-31T00:01:00;5.67;;;1.70;;
71715;SDS011;59568;52.128;5.434;2023-08-31T00:03:28;3.17;;;1.45;;
71715;SDS011;59568;52.128;5.434;2023-08-31T00:05:55;4.22;;;2.28;;
71715;SDS011;59568;52.128;5.434;2023-08-31T00:08:23;3.08;;;1.45;;
71715;SDS011;59568;52.128;5.434;2023-08-31T00:10:56;3.53;;;1.48;;
71715;SDS011;59568;52.128;5.434;2023-08-31T00:13:24;3.60;;;1.27;;
71715;SDS011;59568;52.128;5.434;2023-08-31T00:15:54;4.30;;;1.65;;
71715;SDS011;59568;52.128;5.434;2023-08-31T00:18:26;2.90;;;1.60;;
71715;SDS011;59568;52.128;5.434;2023-08-31T00:20:53;5.70;;;1.70;;
71715;SDS011;59568;52.128;5.434;2023-08-31T00:23:20;3.47;;;1.80;;
71715;SDS011;59568;52.128;5.434;2023-08-31T00:25:47;3.27;;;1.90;;
71715;SDS011;59568;52.128;5.434;2023-08-31T00:28:17;4.63;;;1.67;;
71715;SDS011;59568;52.128;5.434;2023-08-31T00:30:45;4.13;;;1.70;;
71715;SDS011;59568;52.128;5.434;2023-08-31T00:33:13;4.53;;;1.80;;
71715;SDS011;59568;52.128;5.434;2023-08-31T00:35:41;4.05;;;1.50;;
71715;SDS011;59568;52.128;5.434;2023-08-31T00:38:12;3.43;;;1.90;;
71715;SDS011;59568;52.128;5.434;2023-08-31T00:40:41;3.85;;;2.00;;
71715;SDS011;59568;52.128;5.434;2023-08-31T00:43:11;4.45;;;2.33;;
71715;SDS011;59568;52.128;5.434;2023-08-31T00:45:42;5.03;;;2.10;;
71715;SDS011;59568;52.128;5.434;2023-08-31T00:48:11;4.10;;;1.80;;
71715;SDS011;59568;52.128;5.434;2023-08-31T00:50:40;5.57;;;2.00;;
71715;SDS011;59568;52.128;5.434;2023-08-31T00:53:07;6.22;;;2.20;;
71715;SDS011;59568;52.128;5.434;2023-08-31T00:55:35;6.43;;;2.17;;
71715;SDS011;59568;52.128;5.434;2023-08-31T00:58:02;3.35;;;1.70;;
71715;SDS011;59568;52.128;5.434;2023-08-31T01:00:33;4.50;;;1.80;;
71715;SDS011;59568;52.128;5.434;2023-08-31T01:03:18;5.77;;;2.47;;
71715;SDS011;59568;52.128;5.434;2023-08-31T01:05:52;5.55;;;2.60;;
71715;SDS011;59568;52.128;5.434;2023-08-31T01:08:30;5.53;;;2.05;;
71715;SDS011;59568;52.128;5.434;2023-08-31T01:11:07;3.35;;;1.70;;
71715;SDS011;59568;52.128;5.434;2023-08-31T01:14:02;4.50;;;2.33;;
71715;SDS011;59568;52.128;5.434;2023-08-31T01:16:38;3.97;;;2.53;;
71715;SDS011;59568;52.128;5.434;2023-08-31T01:19:12;5.07;;;2.30;;
71715;SDS011;59568;52.128;5.434;2023-08-31T01:21:44;6.53;;;2.75;;
71715;SDS011;59568;52.128;5.434;2023-08-31T01:24:14;4.50;;;2.53;;
71715;SDS011;59568;52.128;5.434;2023-08-31T01:26:41;5.28;;;2.38;;
71715;SDS011;59568;52.128;5.434;2023-08-31T01:29:09;5.57;;;3.00;;
71715;SDS011;59568;52.128;5.434;2023-08-31T01:31:42;7.18;;;2.80;;
71715;SDS011;59568;52.128;5.434;2023-08-31T01:34:10;6.13;;;3.08;;
71715;SDS011;59568;52.128;5.434;2023-08-31T01:36:38;12.07;;;3.45;;
71715;SDS011;59568;52.128;5.434;2023-08-31T01:39:11;7.07;;;4.00;;
71715;SDS011;59568;52.128;5.434;2023-08-31T01:41:46;5.47;;;2.87;;
71715;SDS011;59568;52.128;5.434;2023-08-31T01:44:17;6.28;;;3.38;;
71715;SDS011;59568;52.128;5.434;2023-08-31T01:46:46;8.32;;;4.05;;
71715;SDS011;59568;52.128;5.434;2023-08-31T01:49:13;9.50;;;3.70;;
71715;SDS011;59568;52.128;5.434;2023-08-31T01:51:41;8.13;;;4.18;;
71715;SDS011;59568;52.128;5.434;2023-08-31T01:54:07;9.10;;;4.40;;
71715;SDS011;59568;52.128;5.434;2023-08-31T01:56:34;11.52;;;5.00;;
71715;SDS011;59568;52.128;5.434;2023-08-31T01:59:01;7.90;;;3.60;;
71715;SDS011;59568;52.128;5.434;2023-08-31T02:01:28;9.05;;;4.10;;
71715;SDS011;59568;52.128;5.434;2023-08-31T02:03:55;9.23;;;3.72;;
71715;SDS011;59568;52.128;5.434;2023-08-31T02:06:22;5.93;;;3.70;;
71715;SDS011;59568;52.128;5.434;2023-08-31T02:08:49;6.07;;;3.17;;
71715;SDS011;59568;52.128;5.434;2023-08-31T02:11:16;7.82;;;3.70;;
71715;SDS011;59568;52.128;5.434;2023-08-31T02:13:43;5.57;;;3.80;;
71715;SDS011;59568;52.128;5.434;2023-08-31T02:16:09;9.50;;;5.10;;
71715;SDS011;59568;52.128;5.434;2023-08-31T02:18:36;8.33;;;4.43;;
71715;SDS011;59568;52.128;5.434;2023-08-31T02:21:03;6.80;;;3.92;;
71715;SDS011;59568;52.128;5.434;2023-08-31T02:23:33;6.60;;;4.57;;
71715;SDS011;59568;52.128;5.434;2023-08-31T02:26:00;7.72;;;4.85;;
71715;SDS011;59568;52.128;5.434;2023-08-31T02:28:27;9.15;;;4.28;;
71715;SDS011;59568;52.128;5.434;2023-08-31T02:31:01;10.87;;;5.63;;
71715;SDS011;59568;52.128;5.434;2023-08-31T02:33:29;8.07;;;4.47;;
71715;SDS011;59568;52.128;5.434;2023-08-31T02:35:56;7.60;;;4.40;;
71715;SDS011;59568;52.128;5.434;2023-08-31T02:38:23;8.30;;;4.80;;
71715;SDS011;59568;52.128;5.434;2023-08-31T02:40:50;6.30;;;4.70;;
71715;SDS011;59568;52.128;5.434;2023-08-31T02:43:17;6.97;;;4.53;;
71715;SDS011;59568;52.128;5.434;2023-08-31T02:45:43;5.93;;;4.10;;
71715;SDS011;59568;52.128;5.434;2023-08-31T02:48:10;6.78;;;4.35;;
71715;SDS011;59568;52.128;5.434;2023-08-31T02:50:37;8.50;;;3.95;;
71715;SDS011;59568;52.128;5.434;2023-08-31T02:53:05;6.53;;;4.07;;
71715;SDS011;59568;52.128;5.434;2023-08-31T02:55:32;9.47;;;5.10;;
71715;SDS011;59568;52.128;5.434;2023-08-31T02:57:59;7.43;;;4.05;;
71715;SDS011;59568;52.128;5.434;2023-08-31T03:00:26;7.10;;;4.10;;
71715;SDS011;59568;52.128;5.434;2023-08-31T03:02:54;6.15;;;4.50;;
71715;SDS011;59568;52.128;5.434;2023-08-31T03:05:21;8.65;;;4.25;;
71715;SDS011;59568;52.128;5.434;2023-08-31T03:07:48;8.87;;;4.40;;
71715;SDS011;59568;52.128;5.434;2023-08-31T03:10:15;8.80;;;4.53;;
71715;SDS011;59568;52.128;5.434;2023-08-31T03:12:42;7.10;;;4.18;;
71715;SDS011;59568;52.128;5.434;2023-08-31T03:15:08;5.43;;;3.80;;
71715;SDS011;59568;52.128;5.434;2023-08-31T03:17:35;5.38;;;3.35;;
71715;SDS011;59568;52.128;5.434;2023-08-31T03:20:02;12.33;;;3.83;;
71715;SDS011;59568;52.128;5.434;2023-08-31T03:22:32;10.10;;;4.65;;
71715;SDS011;59568;52.128;5.434;2023-08-31T03:24:59;6.18;;;3.55;;
71715;SDS011;59568;52.128;5.434;2023-08-31T03:27:26;7.85;;;4.30;;
71715;SDS011;59568;52.128;5.434;2023-08-31T03:29:52;7.80;;;3.35;;
71715;SDS011;59568;52.128;5.434;2023-08-31T03:32:19;6.87;;;3.43;;
71715;SDS011;59568;52.128;5.434;2023-08-31T03:34:46;9.77;;;3.90;;
71715;SDS011;59568;52.128;5.434;2023-08-31T03:37:13;9.25;;;3.80;;
71715;SDS011;59568;52.128;5.434;2023-08-31T03:39:40;7.45;;;3.80;;
71715;SDS011;59568;52.128;5.434;2023-08-31T03:42:08;4.68;;;3.17;;
71715;SDS011;59568;52.128;5.434;2023-08-31T03:44:35;7.23;;;3.27;;
71715;SDS011;59568;52.128;5.434;2023-08-31T03:47:03;6.68;;;2.90;;
71715;SDS011;59568;52.128;5.434;2023-08-31T03:49:30;5.63;;;2.90;;
71715;SDS011;59568;52.128;5.434;2023-08-31T03:51:58;7.28;;;3.00;;
71715;SDS011;59568;52.128;5.434;2023-08-31T03:54:25;6.07;;;2.83;;
71715;SDS011;59568;52.128;5.434;2023-08-31T03:56:52;7.03;;;2.90;;
71715;SDS011;59568;52.128;5.434;2023-08-31T03:59:19;4.03;;;2.10;;
71715;SDS011;59568;52.128;5.434;2023-08-31T04:01:46;9.45;;;2.60;;
71715;SDS011;59568;52.128;5.434;2023-08-31T04:04:13;4.78;;;2.45;;
71715;SDS011;59568;52.128;5.434;2023-08-31T04:06:40;6.68;;;2.20;;
71715;SDS011;59568;52.128;5.434;2023-08-31T04:09:07;3.40;;;1.67;;
71715;SDS011;59568;52.128;5.434;2023-08-31T04:11:34;3.88;;;2.00;;
71715;SDS011;59568;52.128;5.434;2023-08-31T04:14:01;4.18;;;2.00;;
71715;SDS011;59568;52.128;5.434;2023-08-31T04:16:27;4.45;;;1.95;;
71715;SDS011;59568;52.128;5.434;2023-08-31T04:18:55;5.53;;;2.10;;
71715;SDS011;59568;52.128;5.434;2023-08-31T04:21:21;4.43;;;2.07;;
71715;SDS011;59568;52.128;5.434;2023-08-31T04:23:48;4.40;;;2.30;;
71715;SDS011;59568;52.128;5.434;2023-08-31T04:26:15;5.38;;;2.28;;
71715;SDS011;59568;52.128;5.434;2023-08-31T04:28:44;7.93;;;2.45;;
71715;SDS011;59568;52.128;5.434;2023-08-31T04:31:11;5.03;;;2.28;;
71715;SDS011;59568;52.128;5.434;2023-08-31T04:33:38;5.43;;;2.87;;
71715;SDS011;59568;52.128;5.434;2023-08-31T04:36:06;7.35;;;2.88;;
71715;SDS011;59568;52.128;5.434;2023-08-31T04:38:33;7.13;;;3.00;;
71715;SDS011;59568;52.128;5.434;2023-08-31T04:41:01;4.00;;;2.42;;
71715;SDS011;59568;52.128;5.434;2023-08-31T04:43:29;5.43;;;2.65;;
71715;SDS011;59568;52.128;5.434;2023-08-31T04:45:56;7.67;;;2.50;;
71715;SDS011;59568;52.128;5.434;2023-08-31T04:48:23;5.47;;;2.97;;
71715;SDS011;59568;52.128;5.434;2023-08-31T04:50:49;4.53;;;3.03;;
71715;SDS011;59568;52.128;5.434;2023-08-31T04:53:16;6.32;;;3.22;;
71715;SDS011;59568;52.128;5.434;2023-08-31T04:55:43;4.85;;;2.70;;
71715;SDS011;59568;52.128;5.434;2023-08-31T04:58:10;6.97;;;3.20;;
71715;SDS011;59568;52.128;5.434;2023-08-31T05:00:37;7.40;;;3.13;;
71715;SDS011;59568;52.128;5.434;2023-08-31T05:03:06;5.25;;;2.83;;
71715;SDS011;59568;52.128;5.434;2023-08-31T05:05:33;4.60;;;2.78;;
71715;SDS011;59568;52.128;5.434;2023-08-31T05:08:01;6.80;;;2.95;;
71715;SDS011;59568;52.128;5.434;2023-08-31T05:10:29;4.27;;;2.73;;
71715;SDS011;59568;52.128;5.434;2023-08-31T05:12:56;5.25;;;2.47;;
71715;SDS011;59568;52.128;5.434;2023-08-31T05:15:23;4.75;;;1.80;;
71715;SDS011;59568;52.128;5.434;2023-08-31T05:17:54;5.63;;;1.60;;
71715;SDS011;59568;52.128;5.434;2023-08-31T05:20:21;4.53;;;1.60;;
71715;SDS011;59568;52.128;5.434;2023-08-31T05:22:50;4.50;;;1.40;;
71715;SDS011;59568;52.128;5.434;2023-08-31T05:25:17;6.38;;;1.25;;
71715;SDS011;59568;52.128;5.434;2023-08-31T05:27:44;5.88;;;1.25;;
71715;SDS011;59568;52.128;5.434;2023-08-31T05:30:11;7.15;;;2.17;;
71715;SDS011;59568;52.128;5.434;2023-08-31T05:32:38;4.43;;;2.83;;
71715;SDS011;59568;52.128;5.434;2023-08-31T05:35:05;5.47;;;1.83;;
71715;SDS011;59568;52.128;5.434;2023-08-31T05:37:33;8.43;;;2.55;;
71715;SDS011;59568;52.128;5.434;2023-08-31T05:40:05;5.57;;;2.47;;
71715;SDS011;59568;52.128;5.434;2023-08-31T05:42:36;5.70;;;2.78;;
71715;SDS011;59568;52.128;5.434;2023-08-31T05:45:03;7.28;;;3.65;;
71715;SDS011;59568;52.128;5.434;2023-08-31T05:47:31;9.63;;;4.27;;
71715;SDS011;59568;52.128;5.434;2023-08-31T05:49:58;8.48;;;4.30;;
71715;SDS011;59568;52.128;5.434;2023-08-31T05:52:24;7.40;;;3.85;;
71715;SDS011;59568;52.128;5.434;2023-08-31T05:54:51;6.30;;;2.70;;
71715;SDS011;59568;52.128;5.434;2023-08-31T05:57:19;6.72;;;3.97;;
71715;SDS011;59568;52.128;5.434;2023-08-31T05:59:48;5.53;;;3.43;;
71715;SDS011;59568;52.128;5.434;2023-08-31T06:02:15;5.25;;;2.83;;
71715;SDS011;59568;52.128;5.434;2023-08-31T06:04:42;7.05;;;3.53;;
71715;SDS011;59568;52.128;5.434;2023-08-31T06:07:10;8.50;;;4.38;;
71715;SDS011;59568;52.128;5.434;2023-08-31T06:09:36;8.10;;;4.20;;
71715;SDS011;59568;52.128;5.434;2023-08-31T06:12:05;7.63;;;3.80;;
71715;SDS011;59568;52.128;5.434;2023-08-31T06:14:32;8.65;;;4.53;;
71715;SDS011;59568;52.128;5.434;2023-08-31T06:16:59;9.18;;;4.35;;
71715;SDS011;59568;52.128;5.434;2023-08-31T06:19:26;6.22;;;3.55;;
71715;SDS011;59568;52.128;5.434;2023-08-31T06:21:53;5.40;;;2.75;;
71715;SDS011;59568;52.128;5.434;2023-08-31T06:24:20;6.40;;;3.13;;
71715;SDS011;59568;52.128;5.434;2023-08-31T06:26:47;7.05;;;3.05;;
71715;SDS011;59568;52.128;5.434;2023-08-31T06:29:14;5.43;;;2.97;;
71715;SDS011;59568;52.128;5.434;2023-08-31T06:31:41;7.85;;;3.85;;
71715;SDS011;59568;52.128;5.434;2023-08-31T06:34:08;7.82;;;4.30;;
71715;SDS011;59568;52.128;5.434;2023-08-31T06:36:34;11.40;;;4.57;;
71715;SDS011;59568;52.128;5.434;2023-08-31T06:39:01;7.10;;;4.93;;
71715;SDS011;59568;52.128;5.434;2023-08-31T06:41:29;11.65;;;5.82;;
71715;SDS011;59568;52.128;5.434;2023-08-31T06:43:57;10.60;;;4.90;;
71715;SDS011;59568;52.128;5.434;2023-08-31T06:46:24;12.05;;;6.32;;
71715;SDS011;59568;52.128;5.434;2023-08-31T06:48:51;8.97;;;5.13;;
71715;SDS011;59568;52.128;5.434;2023-08-31T06:51:19;9.98;;;4.20;;
71715;SDS011;59568;52.128;5.434;2023-08-31T06:53:49;7.75;;;3.85;;
71715;SDS011;59568;52.128;5.434;2023-08-31T06:56:16;5.63;;;2.97;;
71715;SDS011;59568;52.128;5.434;2023-08-31T06:58:42;5.63;;;3.30;;
71715;SDS011;59568;52.128;5.434;2023-08-31T07:01:11;6.97;;;2.97;;
71715;SDS011;59568;52.128;5.434;2023-08-31T07:03:39;6.63;;;3.17;;
71715;SDS011;59568;52.128;5.434;2023-08-31T07:06:06;6.82;;;3.67;;
71715;SDS011;59568;52.128;5.434;2023-08-31T07:08:33;7.80;;;3.85;;
71715;SDS011;59568;52.128;5.434;2023-08-31T07:11:00;8.35;;;4.90;;
71715;SDS011;59568;52.128;5.434;2023-08-31T07:13:27;8.10;;;4.20;;
71715;SDS011;59568;52.128;5.434;2023-08-31T07:15:54;9.25;;;4.63;;
71715;SDS011;59568;52.128;5.434;2023-08-31T07:18:21;7.53;;;4.45;;
71715;SDS011;59568;52.128;5.434;2023-08-31T07:20:48;6.97;;;4.15;;
71715;SDS011;59568;52.128;5.434;2023-08-31T07:23:15;6.70;;;4.28;;
71715;SDS011;59568;52.128;5.434;2023-08-31T07:25:42;8.87;;;4.40;;
71715;SDS011;59568;52.128;5.434;2023-08-31T07:28:09;6.82;;;3.72;;
71715;SDS011;59568;52.128;5.434;2023-08-31T07:30:37;6.95;;;3.97;;
71715;SDS011;59568;52.128;5.434;2023-08-31T07:33:04;5.55;;;3.60;;
71715;SDS011;59568;52.128;5.434;2023-08-31T07:35:52;6.28;;;3.42;;
71715;SDS011;59568;52.128;5.434;2023-08-31T07:38:18;6.07;;;3.40;;
71715;SDS011;59568;52.128;5.434;2023-08-31T07:40:46;6.55;;;3.47;;
71715;SDS011;59568;52.128;5.434;2023-08-31T07:43:13;7.25;;;4.25;;
71715;SDS011;59568;52.128;5.434;2023-08-31T07:45:40;9.50;;;4.22;;
71715;SDS011;59568;52.128;5.434;2023-08-31T07:48:08;7.35;;;4.60;;
71715;SDS011;59568;52.128;5.434;2023-08-31T07:50:35;9.30;;;4.60;;
71715;SDS011;59568;52.128;5.434;2023-08-31T07:53:02;6.18;;;4.25;;
71715;SDS011;59568;52.128;5.434;2023-08-31T07:55:32;7.82;;;4.18;;
71715;SDS011;59568;52.128;5.434;2023-08-31T07:58:00;8.52;;;4.07;;
71715;SDS011;59568;52.128;5.434;2023-08-31T08:00:27;8.15;;;4.07;;
71715;SDS011;59568;52.128;5.434;2023-08-31T08:02:54;7.13;;;3.30;;
71715;SDS011;59568;52.128;5.434;2023-08-31T08:05:22;6.30;;;2.20;;
71715;SDS011;59568;52.128;5.434;2023-08-31T08:07:49;5.22;;;2.28;;
71715;SDS011;59568;52.128;5.434;2023-08-31T08:10:16;5.10;;;2.55;;
71715;SDS011;59568;52.128;5.434;2023-08-31T08:12:43;8.15;;;2.78;;
71715;SDS011;59568;52.128;5.434;2023-08-31T08:15:11;5.77;;;2.97;;
71715;SDS011;59568;52.128;5.434;2023-08-31T08:17:38;6.68;;;3.17;;
71715;SDS011;59568;52.128;5.434;2023-08-31T08:20:06;8.25;;;3.15;;
71715;SDS011;59568;52.128;5.434;2023-08-31T08:22:35;5.07;;;3.17;;
71715;SDS011;59568;52.128;5.434;2023-08-31T08:25:02;5.57;;;3.38;;
71715;SDS011;59568;52.128;5.434;2023-08-31T08:27:30;7.07;;;4.07;;
71715;SDS011;59568;52.128;5.434;2023-08-31T08:29:59;5.82;;;3.53;;
71715;SDS011;59568;52.128;5.434;2023-08-31T08:32:26;7.75;;;4.32;;
71715;SDS011;59568;52.128;5.434;2023-08-31T08:34:53;6.68;;;4.47;;
71715;SDS011;59568;52.128;5.434;2023-08-31T08:37:20;7.05;;;4.90;;
71715;SDS011;59568;52.128;5.434;2023-08-31T08:39:50;7.73;;;4.47;;
71715;SDS011;59568;52.128;5.434;2023-08-31T08:42:19;7.80;;;5.30;;
71715;SDS011;59568;52.128;5.434;2023-08-31T08:44:51;6.78;;;4.80;;
71715;SDS011;59568;52.128;5.434;2023-08-31T08:47:18;7.93;;;4.90;;
71715;SDS011;59568;52.128;5.434;2023-08-31T08:49:47;9.00;;;4.95;;
71715;SDS011;59568;52.128;5.434;2023-08-31T08:52:15;8.57;;;4.80;;
71715;SDS011;59568;52.128;5.434;2023-08-31T08:54:42;12.80;;;5.32;;
71715;SDS011;59568;52.128;5.434;2023-08-31T08:57:10;7.50;;;4.80;;
71715;SDS011;59568;52.128;5.434;2023-08-31T08:59:37;8.85;;;4.80;;
71715;SDS011;59568;52.128;5.434;2023-08-31T09:02:04;6.10;;;4.53;;
71715;SDS011;59568;52.128;5.434;2023-08-31T09:04:31;6.50;;;4.60;;
71715;SDS011;59568;52.128;5.434;2023-08-31T09:06:59;8.02;;;4.60;;
71715;SDS011;59568;52.128;5.434;2023-08-31T09:09:26;5.07;;;3.30;;
71715;SDS011;59568;52.128;5.434;2023-08-31T09:11:52;7.80;;;3.78;;
71715;SDS011;59568;52.128;5.434;2023-08-31T09:14:22;6.20;;;3.30;;
71715;SDS011;59568;52.128;5.434;2023-08-31T09:16:49;5.30;;;3.73;;
71715;SDS011;59568;52.128;5.434;2023-08-31T09:19:18;7.57;;;2.85;;
71715;SDS011;59568;52.128;5.434;2023-08-31T09:21:47;5.82;;;2.55;;
71715;SDS011;59568;52.128;5.434;2023-08-31T09:24:15;5.47;;;2.30;;
71715;SDS011;59568;52.128;5.434;2023-08-31T09:26:44;7.25;;;2.47;;
71715;SDS011;59568;52.128;5.434;2023-08-31T09:29:13;5.37;;;1.93;;
71715;SDS011;59568;52.128;5.434;2023-08-31T09:31:43;5.78;;;2.30;;
71715;SDS011;59568;52.128;5.434;2023-08-31T09:34:12;5.85;;;2.30;;
71715;SDS011;59568;52.128;5.434;2023-08-31T09:36:40;4.40;;;1.40;;
71715;SDS011;59568;52.128;5.434;2023-08-31T09:39:08;4.28;;;1.75;;
71715;SDS011;59568;52.128;5.434;2023-08-31T09:41:36;5.67;;;0.97;;
71715;SDS011;59568;52.128;5.434;2023-08-31T09:44:22;5.32;;;1.17;;
71715;SDS011;59568;52.128;5.434;2023-08-31T09:46:49;3.78;;;1.00;;
71715;SDS011;59568;52.128;5.434;2023-08-31T09:49:16;3.50;;;1.00;;
71715;SDS011;59568;52.128;5.434;2023-08-31T09:51:45;3.65;;;1.23;;
71715;SDS011;59568;52.128;5.434;2023-08-31T09:54:13;5.93;;;1.40;;
71715;SDS011;59568;52.128;5.434;2023-08-31T09:56:43;5.47;;;0.82;;
71715;SDS011;59568;52.128;5.434;2023-08-31T09:59:11;5.78;;;1.70;;
71715;SDS011;59568;52.128;5.434;2023-08-31T10:01:40;3.65;;;0.70;;
71715;SDS011;59568;52.128;5.434;2023-08-31T10:04:08;3.28;;;0.60;;
71715;SDS011;59568;52.128;5.434;2023-08-31T10:06:35;9.37;;;0.93;;
71715;SDS011;59568;52.128;5.434;2023-08-31T10:09:05;2.88;;;0.50;;
71715;SDS011;59568;52.128;5.434;2023-08-31T10:11:33;2.17;;;0.38;;
71715;SDS011;59568;52.128;5.434;2023-08-31T10:14:01;2.40;;;0.50;;
71715;SDS011;59568;52.128;5.434;2023-08-31T10:16:30;5.28;;;0.60;;
71715;SDS011;59568;52.128;5.434;2023-08-31T10:18:59;3.53;;;0.70;;
71715;SDS011;59568;52.128;5.434;2023-08-31T10:21:26;2.47;;;0.47;;
71715;SDS011;59568;52.128;5.434;2023-08-31T10:23:53;1.38;;;0.30;;
71715;SDS011;59568;52.128;5.434;2023-08-31T10:26:27;2.03;;;0.30;;
71715;SDS011;59568;52.128;5.434;2023-08-31T10:28:56;3.05;;;0.47;;
71715;SDS011;59568;52.128;5.434;2023-08-31T10:31:27;6.07;;;0.30;;
71715;SDS011;59568;52.128;5.434;2023-08-31T10:33:59;2.28;;;0.40;;
71715;SDS011;59568;52.128;5.434;2023-08-31T10:36:46;3.15;;;0.40;;
71715;SDS011;59568;52.128;5.434;2023-08-31T10:39:20;2.75;;;0.55;;
71715;SDS011;59568;52.128;5.434;2023-08-31T10:41:56;1.92;;;0.30;;
71715;SDS011;59568;52.128;5.434;2023-08-31T10:44:24;3.60;;;0.50;;
71715;SDS011;59568;52.128;5.434;2023-08-31T10:46:53;2.00;;;0.50;;
71715;SDS011;59568;52.128;5.434;2023-08-31T10:49:21;3.53;;;0.38;;
71715;SDS011;59568;52.128;5.434;2023-08-31T10:51:56;2.47;;;0.40;;
71715;SDS011;59568;52.128;5.434;2023-08-31T10:54:31;4.63;;;0.57;;
71715;SDS011;59568;52.128;5.434;2023-08-31T10:57:02;3.17;;;0.50;;
71715;SDS011;59568;52.128;5.434;2023-08-31T11:02:31;1.75;;;0.30;;
71715;SDS011;59568;52.128;5.434;2023-08-31T11:05:11;2.58;;;0.38;;
71715;SDS011;59568;52.128;5.434;2023-08-31T11:07:44;1.77;;;0.43;;
71715;SDS011;59568;52.128;5.434;2023-08-31T11:12:51;1.90;;;0.30;;
71715;SDS011;59568;52.128;5.434;2023-08-31T11:15:23;1.35;;;0.30;;
71715;SDS011;59568;52.128;5.434;2023-08-31T11:17:56;2.20;;;0.40;;
71715;SDS011;59568;52.128;5.434;2023-08-31T11:20:24;2.30;;;0.40;;
71715;SDS011;59568;52.128;5.434;2023-08-31T11:22:55;1.53;;;0.40;;
71715;SDS011;59568;52.128;5.434;2023-08-31T11:25:23;1.50;;;0.28;;
71715;SDS011;59568;52.128;5.434;2023-08-31T11:27:55;2.40;;;0.40;;
71715;SDS011;59568;52.128;5.434;2023-08-31T11:30:26;1.55;;;0.30;;
71715;SDS011;59568;52.128;5.434;2023-08-31T11:33:02;1.90;;;0.30;;
71715;SDS011;59568;52.128;5.434;2023-08-31T11:35:31;1.37;;;0.20;;
71715;SDS011;59568;52.128;5.434;2023-08-31T11:38:02;2.03;;;0.30;;
71715;SDS011;59568;52.128;5.434;2023-08-31T11:40:30;2.30;;;0.52;;
71715;SDS011;59568;52.128;5.434;2023-08-31T11:42:58;2.20;;;0.30;;
71715;SDS011;59568;52.128;5.434;2023-08-31T11:45:30;2.20;;;0.20;;
71715;SDS011;59568;52.128;5.434;2023-08-31T11:47:58;1.50;;;0.30;;
71715;SDS011;59568;52.128;5.434;2023-08-31T11:50:25;1.65;;;0.20;;
71715;SDS011;59568;52.128;5.434;2023-08-31T11:52:54;2.33;;;0.35;;
71715;SDS011;59568;52.128;5.434;2023-08-31T11:55:22;0.95;;;0.40;;
71715;SDS011;59568;52.128;5.434;2023-08-31T11:57:50;3.05;;;0.20;;
71715;SDS011;59568;52.128;5.434;2023-08-31T12:00:18;3.00;;;0.30;;
71715;SDS011;59568;52.128;5.434;2023-08-31T12:02:59;0.93;;;0.25;;
71715;SDS011;59568;52.128;5.434;2023-08-31T12:05:27;1.08;;;0.30;;
71715;SDS011;59568;52.128;5.434;2023-08-31T12:07:55;0.95;;;0.20;;
71715;SDS011;59568;52.128;5.434;2023-08-31T12:10:24;1.67;;;0.30;;
71715;SDS011;59568;52.128;5.434;2023-08-31T12:12:52;1.93;;;0.40;;
71715;SDS011;59568;52.128;5.434;2023-08-31T12:15:22;3.15;;;0.30;;
71715;SDS011;59568;52.128;5.434;2023-08-31T12:17:50;3.25;;;0.40;;
71715;SDS011;59568;52.128;5.434;2023-08-31T12:20:24;1.35;;;0.28;;
71715;SDS011;59568;52.128;5.434;2023-08-31T12:22:54;1.23;;;0.25;;
71715;SDS011;59568;52.128;5.434;2023-08-31T12:25:21;1.30;;;0.20;;
71715;SDS011;59568;52.128;5.434;2023-08-31T12:27:49;2.58;;;0.25;;
71715;SDS011;59568;52.128;5.434;2023-08-31T12:30:19;0.98;;;0.40;;
71715;SDS011;59568;52.128;5.434;2023-08-31T12:32:47;2.10;;;0.40;;
71715;SDS011;59568;52.128;5.434;2023-08-31T12:35:14;1.55;;;0.30;;
71715;SDS011;59568;52.128;5.434;2023-08-31T12:37:41;1.23;;;0.30;;
71715;SDS011;59568;52.128;5.434;2023-08-31T12:40:08;3.38;;;0.40;;
71715;SDS011;59568;52.128;5.434;2023-08-31T12:42:36;1.60;;;0.20;;
71715;SDS011;59568;52.128;5.434;2023-08-31T12:45:03;1.73;;;0.20;;
71715;SDS011;59568;52.128;5.434;2023-08-31T12:47:34;2.90;;;0.30;;
71715;SDS011;59568;52.128;5.434;2023-08-31T12:50:01;1.10;;;0.30;;
71715;SDS011;59568;52.128;5.434;2023-08-31T12:52:29;2.30;;;0.50;;
71715;SDS011;59568;52.128;5.434;2023-08-31T12:54:56;1.20;;;0.20;;
71715;SDS011;59568;52.128;5.434;2023-08-31T12:57:23;2.20;;;0.40;;
71715;SDS011;59568;52.128;5.434;2023-08-31T12:59:50;2.95;;;0.30;;
71715;SDS011;59568;52.128;5.434;2023-08-31T13:02:17;1.70;;;0.30;;
71715;SDS011;59568;52.128;5.434;2023-08-31T13:04:44;1.65;;;0.30;;
71715;SDS011;59568;52.128;5.434;2023-08-31T13:07:11;2.05;;;0.30;;
71715;SDS011;59568;52.128;5.434;2023-08-31T13:09:38;0.88;;;0.20;;
71715;SDS011;59568;52.128;5.434;2023-08-31T13:12:05;1.20;;;0.30;;
71715;SDS011;59568;52.128;5.434;2023-08-31T13:14:32;1.77;;;0.20;;
71715;SDS011;59568;52.128;5.434;2023-08-31T13:17:01;6.30;;;1.63;;
71715;SDS011;59568;52.128;5.434;2023-08-31T13:19:28;1.33;;;0.30;;
71715;SDS011;59568;52.128;5.434;2023-08-31T13:21:55;1.92;;;0.40;;
71715;SDS011;59568;52.128;5.434;2023-08-31T13:24:22;1.23;;;0.20;;
71715;SDS011;59568;52.128;5.434;2023-08-31T13:26:49;3.77;;;0.43;;
71715;SDS011;59568;52.128;5.434;2023-08-31T13:29:16;2.25;;;0.30;;
71715;SDS011;59568;52.128;5.434;2023-08-31T13:31:43;1.38;;;0.28;;
71715;SDS011;59568;52.128;5.434;2023-08-31T13:34:12;1.23;;;0.40;;
71715;SDS011;59568;52.128;5.434;2023-08-31T13:36:40;1.77;;;0.38;;
71715;SDS011;59568;52.128;5.434;2023-08-31T13:39:07;2.50;;;0.40;;
71715;SDS011;59568;52.128;5.434;2023-08-31T13:41:34;2.85;;;0.30;;
71715;SDS011;59568;52.128;5.434;2023-08-31T13:44:01;2.50;;;0.57;;
71715;SDS011;59568;52.128;5.434;2023-08-31T13:46:28;2.65;;;0.30;;
71715;SDS011;59568;52.128;5.434;2023-08-31T13:48:55;1.63;;;0.30;;
71715;SDS011;59568;52.128;5.434;2023-08-31T13:51:22;2.03;;;0.30;;
71715;SDS011;59568;52.128;5.434;2023-08-31T13:53:49;1.90;;;0.40;;
71715;SDS011;59568;52.128;5.434;2023-08-31T13:56:16;4.47;;;0.43;;
71715;SDS011;59568;52.128;5.434;2023-08-31T13:58:43;1.58;;;0.38;;
71715;SDS011;59568;52.128;5.434;2023-08-31T14:01:10;1.10;;;0.40;;
71715;SDS011;59568;52.128;5.434;2023-08-31T14:03:39;2.13;;;0.30;;
71715;SDS011;59568;52.128;5.434;2023-08-31T14:06:07;3.95;;;0.40;;
71715;SDS011;59568;52.128;5.434;2023-08-31T14:08:36;3.90;;;0.57;;
71715;SDS011;59568;52.128;5.434;2023-08-31T14:11:03;2.10;;;0.30;;
71715;SDS011;59568;52.128;5.434;2023-08-31T14:13:30;2.10;;;0.88;;
71715;SDS011;59568;52.128;5.434;2023-08-31T14:15:57;1.83;;;0.43;;
71715;SDS011;59568;52.128;5.434;2023-08-31T14:18:26;2.15;;;0.40;;
71715;SDS011;59568;52.128;5.434;2023-08-31T14:20:55;1.10;;;0.38;;
71715;SDS011;59568;52.128;5.434;2023-08-31T14:23:22;1.85;;;0.45;;
71715;SDS011;59568;52.128;5.434;2023-08-31T14:25:50;1.52;;;0.30;;
71715;SDS011;59568;52.128;5.434;2023-08-31T14:28:17;1.03;;;0.53;;
71715;SDS011;59568;52.128;5.434;2023-08-31T14:30:44;2.88;;;0.40;;
71715;SDS011;59568;52.128;5.434;2023-08-31T14:33:11;2.83;;;0.40;;
71715;SDS011;59568;52.128;5.434;2023-08-31T14:35:38;1.20;;;0.30;;
71715;SDS011;59568;52.128;5.434;2023-08-31T14:38:05;2.70;;;0.60;;
71715;SDS011;59568;52.128;5.434;2023-08-31T14:40:32;1.43;;;0.20;;
71715;SDS011;59568;52.128;5.434;2023-08-31T14:43:02;1.90;;;0.50;;
71715;SDS011;59568;52.128;5.434;2023-08-31T14:45:29;2.03;;;0.40;;
71715;SDS011;59568;52.128;5.434;2023-08-31T14:47:56;2.65;;;0.30;;
71715;SDS011;59568;52.128;5.434;2023-08-31T14:50:22;2.80;;;0.40;;
71715;SDS011;59568;52.128;5.434;2023-08-31T14:52:49;3.17;;;0.53;;
71715;SDS011;59568;52.128;5.434;2023-08-31T14:55:16;2.10;;;0.30;;
71715;SDS011;59568;52.128;5.434;2023-08-31T14:57:43;1.38;;;0.30;;
71715;SDS011;59568;52.128;5.434;2023-08-31T15:00:10;1.98;;;0.30;;